Time;durP1;ratioP1;P1;durP2;ratioP2;P2;SDS_P1;SDS_P2;PMS_P1;PMS_P2;Temp;Humidity;BMP_temperature;BMP_pressure;BME280_temperature;BME280_humidity;BME280_pressure;Samples;Min_cycle;Max_cycle;Signal;HPM_P1;HPM_P2
2021/04/28 00:01:25;;;;;;;5.63;2.97;;;;;;;8.04;42.91;100743.63;5137859;27;20036;-39
2021/04/28 00:03:51;;;;;;;3.97;2.70;;;;;;;8.06;43.16;100734.31;5137370;27;20061;-39
2021/04/28 00:06:16;;;;;;;4.88;2.38;;;;;;;7.88;44.04;100737.72;5137747;27;20062;-39
2021/04/28 00:08:42;;;;;;;3.57;2.73;;;;;;;7.82;43.98;100727.00;5137091;27;20034;-39
2021/04/28 00:11:07;;;;;;;5.80;2.77;;;;;;;7.82;44.39;100727.81;5137828;27;20027;-39
2021/04/28 00:13:32;;;;;;;6.57;3.10;;;;;;;7.72;43.88;100722.91;5137300;27;20030;-39
2021/04/28 00:15:58;;;;;;;4.87;2.40;;;;;;;7.74;45.32;100714.59;5137262;27;20027;-39
2021/04/28 00:18:24;;;;;;;3.90;2.70;;;;;;;7.73;44.81;100718.34;5137398;27;20106;-39
2021/04/28 00:20:49;;;;;;;4.93;3.00;;;;;;;7.68;45.03;100712.78;5137796;27;20023;-39
2021/04/28 00:23:15;;;;;;;3.80;2.70;;;;;;;7.70;44.73;100713.38;5137880;27;20030;-39
2021/04/28 00:25:41;;;;;;;5.25;3.25;;;;;;;7.64;44.99;100719.63;5137666;27;20079;-39
2021/04/28 00:28:07;;;;;;;4.85;3.10;;;;;;;7.65;44.43;100715.88;5137531;27;20341;-39
2021/04/28 00:30:33;;;;;;;5.03;2.80;;;;;;;7.59;45.22;100722.13;5137293;27;20027;-39
2021/04/28 00:32:59;;;;;;;4.78;2.85;;;;;;;7.52;45.03;100705.22;5136902;27;20059;-39
2021/04/28 00:35:25;;;;;;;3.47;2.63;;;;;;;7.49;45.36;100704.59;5136869;27;20119;-39
2021/04/28 00:37:51;;;;;;;4.43;2.85;;;;;;;7.52;45.00;100706.03;5136850;27;20463;-39
2021/04/28 00:40:42;;;;;;;5.30;2.53;;;;;;;7.55;44.91;100702.06;5136749;27;20027;-39
2021/04/28 00:43:08;;;;;;;6.72;3.03;;;;;;;7.42;45.67;100700.28;5134217;27;20095;-39
2021/04/28 00:45:34;;;;;;;3.80;2.80;;;;;;;7.40;45.51;100696.97;5136763;27;20035;-39
2021/04/28 00:48:02;;;;;;;7.32;3.42;;;;;;;7.44;45.90;100699.03;5136313;27;20043;-39
2021/04/28 00:50:30;;;;;;;6.05;3.25;;;;;;;7.31;46.17;100695.56;5136824;27;20027;-39
2021/04/28 00:52:57;;;;;;;4.97;3.30;;;;;;;7.38;46.58;100694.50;5136717;27;20110;-39
2021/04/28 00:55:22;;;;;;;3.90;3.00;;;;;;;7.31;46.06;100693.69;5136149;27;20493;-39
2021/04/28 00:57:50;;;;;;;7.00;3.22;;;;;;;7.17;46.38;100686.69;5136695;27;20043;-39
2021/04/28 01:00:17;;;;;;;7.82;3.17;;;;;;;7.03;47.35;100685.09;5136939;27;20027;-39
2021/04/28 01:02:42;;;;;;;5.68;3.50;;;;;;;6.90;47.53;100684.09;5136318;27;20057;-39
2021/04/28 01:05:10;;;;;;;9.07;3.17;;;;;;;7.04;47.31;100692.16;5136115;27;20383;-39
2021/04/28 01:07:36;;;;;;;6.15;3.00;;;;;;;7.01;47.41;100687.19;5136193;27;20424;-39
2021/04/28 01:10:03;;;;;;;;;;;;;;;7.08;46.69;100682.63;5137171;27;20109;-39
2021/04/28 01:12:30;;;;;;;7.30;3.13;;;;;;;6.83;47.10;100680.63;5136460;27;19918;-39
2021/04/28 01:14:55;;;;;;;6.22;3.40;;;;;;;6.75;47.86;100675.47;5136107;27;20082;-39
2021/04/28 01:17:21;;;;;;;4.10;3.08;;;;;;;6.69;47.80;100679.81;5136039;27;20467;-39
2021/04/28 01:19:46;;;;;;;6.10;2.90;;;;;;;6.83;47.96;100679.78;5136572;27;20038;-39
2021/04/28 01:22:13;;;;;;;5.10;3.13;;;;;;;6.84;48.27;100676.91;5136242;27;20316;-39
2021/04/28 01:24:39;;;;;;;5.40;2.95;;;;;;;6.68;48.16;100678.13;5135696;27;20494;-39
2021/04/28 01:27:14;;;;;;;6.97;3.28;;;;;;;6.70;47.79;100670.72;5135513;27;20035;-39
2021/04/28 01:29:42;;;;;;;5.32;3.10;;;;;;;6.65;48.38;100667.84;5136354;27;20089;-39
2021/04/28 01:32:11;;;;;;;5.28;3.45;;;;;;;6.54;48.70;100667.63;5135489;27;20027;-39
2021/04/28 01:34:39;;;;;;;6.53;3.55;;;;;;;6.47;48.91;100664.13;5135757;27;20031;-39
2021/04/28 01:37:06;;;;;;;5.95;3.47;;;;;;;6.41;48.93;100660.41;5135534;27;20027;-39
2021/04/28 01:39:32;;;;;;;5.07;2.90;;;;;;;6.31;49.85;100665.41;5136178;27;20119;-39
2021/04/28 01:41:57;;;;;;;4.50;3.20;;;;;;;6.36;48.91;100653.00;5135864;27;20463;-39
2021/04/28 01:44:23;;;;;;;7.03;3.23;;;;;;;6.34;49.19;100663.09;5134276;27;20156;-39
2021/04/28 01:46:53;;;;;;;4.65;3.38;;;;;;;6.38;49.26;100658.97;5135213;27;20031;-39
2021/04/28 01:49:19;;;;;;;4.93;3.13;;;;;;;6.30;49.10;100667.25;5135638;27;20027;-39
2021/04/28 01:51:45;;;;;;;5.88;3.58;;;;;;;6.31;49.90;100668.91;5135719;27;20097;-39
2021/04/28 01:54:15;;;;;;;7.97;3.47;;;;;;;6.43;49.26;100664.53;5135571;27;20019;-39
2021/04/28 01:56:42;;;;;;;5.75;3.20;;;;;;;6.39;49.46;100663.31;5135279;27;20387;-39
2021/04/28 01:59:08;;;;;;;5.07;2.97;;;;;;;6.30;49.57;100659.19;5135176;27;20550;-39
2021/04/28 02:01:34;;;;;;;6.65;3.70;;;;;;;6.23;49.68;100654.84;5134007;27;20215;-39
2021/04/28 02:04:00;;;;;;;4.80;3.03;;;;;;;6.25;49.85;100655.50;5134902;27;20038;-39
2021/04/28 02:06:25;;;;;;;4.17;3.00;;;;;;;6.23;50.39;100657.53;5135100;27;20035;-39
2021/04/28 02:08:51;;;;;;;7.03;4.00;;;;;;;6.21;50.42;100649.69;5134720;27;20023;-39
2021/04/28 02:11:16;;;;;;;5.30;3.40;;;;;;;6.25;49.69;100647.44;5135270;27;20043;-39
2021/04/28 02:13:45;;;;;;;5.82;3.13;;;;;;;6.21;50.28;100649.69;5135277;27;20379;-39
2021/04/28 02:16:11;;;;;;;5.97;2.90;;;;;;;6.19;50.29;100657.94;5135438;27;20023;-39
2021/04/28 02:18:39;;;;;;;5.82;3.65;;;;;;;6.11;51.15;100646.59;5134571;27;20479;-39
2021/04/28 02:21:05;;;;;;;4.97;3.67;;;;;;;6.14;50.92;100648.84;5134552;27;20030;-39
2021/04/28 02:23:34;;;;;;;7.22;3.28;;;;;;;6.18;51.02;100650.91;5134771;27;20411;-39
2021/04/28 02:25:59;;;;;;;6.38;3.95;;;;;;;6.05;50.22;100642.88;5134823;27;20023;-39
2021/04/28 02:28:25;;;;;;;4.57;3.30;;;;;;;6.11;50.19;100643.91;5134768;27;20387;-39
2021/04/28 02:30:50;;;;;;;7.43;3.70;;;;;;;5.98;50.97;100639.34;5134739;27;20023;-39
2021/04/28 02:33:16;;;;;;;5.73;3.57;;;;;;;5.99;50.74;100640.19;5135214;27;20039;-39
2021/04/28 02:35:42;;;;;;;8.23;4.07;;;;;;;5.80;51.01;100637.22;5134817;27;20030;-38
2021/04/28 02:38:18;;;;;;;4.93;3.83;;;;;;;5.74;51.36;100638.06;5135338;27;20337;-39
2021/04/28 02:40:45;;;;;;;4.82;3.20;;;;;;;5.77;51.85;100626.09;5134382;27;20037;-39
2021/04/28 02:43:12;;;;;;;5.50;3.83;;;;;;;5.73;51.50;100625.69;5134467;27;20038;-39
2021/04/28 02:45:41;;;;;;;6.03;4.25;;;;;;;5.71;51.82;100625.06;5134228;27;20062;-39
2021/04/28 02:48:07;;;;;;;5.30;3.97;;;;;;;5.77;52.18;100621.56;5134416;27;20368;-38
2021/04/28 02:50:32;;;;;;;;;;;;;;;5.89;50.21;100622.59;5135486;27;20148;-39
2021/04/28 02:52:59;;;;;;;5.40;3.53;;;;;;;5.72;52.08;100616.00;5134398;27;19969;-39
2021/04/28 02:55:25;;;;;;;4.18;3.45;;;;;;;5.76;51.79;100622.59;5135061;27;20042;-39
2021/04/28 02:57:50;;;;;;;7.53;4.05;;;;;;;5.76;52.35;100621.75;5134453;27;20122;-39
2021/04/28 03:00:20;;;;;;;7.73;4.40;;;;;;;5.65;52.52;100618.63;5134030;28;20035;-39
2021/04/28 03:02:48;;;;;;;6.57;3.60;;;;;;;5.71;52.03;100617.03;5134196;27;20334;-39
2021/04/28 03:05:20;;;;;;;4.20;3.33;;;;;;;5.60;52.46;100615.75;5134288;28;20030;-39
2021/04/28 03:07:45;;;;;;;6.43;3.70;;;;;;;5.52;53.30;100617.81;5134236;28;20031;-39
2021/04/28 03:10:12;;;;;;;7.10;3.55;;;;;;;5.54;52.89;100611.19;5133790;28;20080;-39
2021/04/28 03:12:39;;;;;;;4.97;4.03;;;;;;;5.48;53.68;100613.88;5136629;27;20469;-39
2021/04/28 03:15:09;;;;;;;4.72;3.33;;;;;;;5.39;53.11;100615.91;5138709;27;20027;-39
2021/04/28 03:17:36;;;;;;;6.18;3.70;;;;;;;5.42;53.37;100610.97;5137300;27;20037;-39
2021/04/28 03:20:04;;;;;;;5.00;3.47;;;;;;;5.40;53.40;100613.03;5138588;27;20080;-39
2021/04/28 03:22:29;;;;;;;6.07;3.80;;;;;;;5.39;53.35;100606.00;5138241;27;20077;-39
2021/04/28 03:24:55;;;;;;;5.73;3.73;;;;;;;5.39;53.08;100603.34;5138870;27;20110;-39
2021/04/28 03:27:23;;;;;;;5.20;3.73;;;;;;;5.46;52.65;100603.34;5138790;27;20053;-39
2021/04/28 03:29:49;;;;;;;4.45;3.47;;;;;;;5.43;53.08;100611.81;5138447;27;20027;-39
2021/04/28 03:32:14;;;;;;;6.55;4.05;;;;;;;5.37;52.94;100610.75;5138073;27;20035;-39
2021/04/28 03:34:40;;;;;;;5.50;3.67;;;;;;;5.29;52.95;100608.25;5138124;27;20054;-38
2021/04/28 03:37:05;;;;;;;6.17;4.27;;;;;;;5.28;53.53;100609.28;5137908;27;20065;-39
2021/04/28 03:39:31;;;;;;;5.47;3.90;;;;;;;5.15;53.73;100606.56;5137926;27;20031;-39
2021/04/28 03:41:57;;;;;;;5.22;4.15;;;;;;;5.16;54.25;100608.22;5137926;27;20031;-39
2021/04/28 03:44:23;;;;;;;9.88;4.00;;;;;;;5.10;53.78;100603.66;5138181;27;20034;-39
2021/04/28 03:46:48;;;;;;;7.57;3.97;;;;;;;5.04;54.74;100602.63;5137796;27;20031;-39
2021/04/28 03:49:16;;;;;;;3.97;3.55;;;;;;;5.10;54.63;100598.31;5137769;27;20023;-39
2021/04/28 03:51:46;;;;;;;6.45;3.53;;;;;;;5.16;54.10;100602.84;5138061;27;20076;-39
2021/04/28 03:54:12;;;;;;;5.85;4.03;;;;;;;5.10;53.78;100603.66;5137441;27;20339;-39
2021/04/28 03:56:39;;;;;;;7.32;3.80;;;;;;;5.08;53.79;100605.72;5138139;27;20070;-39
2021/04/28 03:59:04;;;;;;;;;;;;;;;5.18;52.70;100606.19;5138446;27;20085;-39
2021/04/28 04:01:29;;;;;;;6.22;4.00;;;;;;;5.06;54.18;100603.22;5137843;27;20328;-39
2021/04/28 04:03:55;;;;;;;7.20;3.97;;;;;;;5.02;54.23;100601.97;5137844;27;20023;-39
2021/04/28 04:06:20;;;;;;;8.23;4.00;;;;;;;5.06;53.92;100605.09;5137742;27;20031;-39
2021/04/28 04:08:45;;;;;;;14.93;4.57;;;;;;;5.12;54.00;100606.94;5137329;27;20031;-39
2021/04/28 04:11:11;;;;;;;7.40;4.03;;;;;;;5.01;54.07;100604.84;5137424;27;20027;-39
2021/04/28 04:13:36;;;;;;;5.23;3.80;;;;;;;4.94;53.57;100604.84;5137098;27;20027;-40
2021/04/28 04:16:02;;;;;;;5.57;3.90;;;;;;;5.03;54.02;100610.88;5137534;27;20070;-39
2021/04/28 04:18:27;;;;;;;6.50;3.53;;;;;;;5.01;54.39;100619.09;5137396;27;20439;-39
2021/04/28 04:20:53;;;;;;;8.17;3.80;;;;;;;5.04;54.18;100610.66;5135659;27;20070;-39
2021/04/28 04:23:18;;;;;;;8.33;4.07;;;;;;;5.05;54.03;100606.13;5136620;27;20067;-38
2021/04/28 04:25:44;;;;;;;7.43;4.03;;;;;;;5.14;53.33;100604.91;5137601;27;20050;-39
2021/04/28 04:28:09;;;;;;;6.03;3.80;;;;;;;5.11;54.42;100605.31;5137076;27;20076;-39
2021/04/28 04:30:34;;;;;;;10.87;4.17;;;;;;;5.13;54.22;100608.63;5136757;27;20046;-39
2021/04/28 04:33:00;;;;;;;4.63;3.67;;;;;;;5.08;53.88;100595.84;5137212;27;20106;-39
2021/04/28 04:35:25;;;;;;;7.50;4.17;;;;;;;5.06;54.12;100605.09;5137100;27;20031;-39
2021/04/28 04:37:50;;;;;;;5.47;4.07;;;;;;;5.06;54.06;100608.59;5136539;27;20030;-39
2021/04/28 04:40:16;;;;;;;7.50;4.07;;;;;;;5.10;53.64;100614.38;5137170;27;20042;-38
2021/04/28 04:42:42;;;;;;;6.30;4.07;;;;;;;5.06;54.17;100622.00;5137056;27;20026;-39
2021/04/28 04:45:08;;;;;;;5.88;3.90;;;;;;;5.12;53.84;100612.31;5136827;27;20034;-38
2021/04/28 04:47:34;;;;;;;7.03;4.03;;;;;;;5.02;54.57;100607.34;5136609;27;20038;-38
2021/04/28 04:49:59;;;;;;;6.33;4.83;;;;;;;5.14;53.60;100607.59;5136748;27;20019;-38
2021/04/28 04:52:25;;;;;;;5.37;3.97;;;;;;;5.11;53.48;100603.44;5136259;27;20027;-39
2021/04/28 04:54:50;;;;;;;8.23;4.03;;;;;;;5.10;54.28;100606.34;5136859;27;20129;-39
2021/04/28 04:57:16;;;;;;;5.97;4.07;;;;;;;5.15;54.03;100603.88;5136017;27;20490;-39
2021/04/28 04:59:41;;;;;;;4.83;3.80;;;;;;;5.16;54.14;100602.84;5136323;27;20308;-39
2021/04/28 05:02:06;;;;;;;8.13;3.80;;;;;;;5.32;53.41;100596.28;5136129;27;20031;-39
2021/04/28 05:04:31;;;;;;;5.90;3.73;;;;;;;5.42;53.80;100600.25;5136460;27;20471;-39
2021/04/28 05:06:57;;;;;;;6.97;4.17;;;;;;;5.49;53.79;100594.06;5136897;27;20028;-39
2021/04/28 05:09:22;;;;;;;10.03;4.10;;;;;;;5.53;53.11;100598.81;5136050;27;20019;-39
2021/04/28 05:11:47;;;;;;;5.00;3.90;;;;;;;5.57;52.92;100594.72;5136508;27;20027;-39
2021/04/28 05:14:13;;;;;;;6.70;4.00;;;;;;;5.54;53.12;100589.75;5135937;27;20038;-38
2021/04/28 05:16:38;;;;;;;7.23;3.93;;;;;;;5.58;53.15;100591.00;5136410;27;20023;-39
2021/04/28 05:19:04;;;;;;;3.93;3.50;;;;;;;5.59;53.14;100581.91;5136156;27;20030;-38
2021/04/28 05:21:29;;;;;;;7.93;4.10;;;;;;;5.58;52.91;100591.00;5136373;27;20019;-39
2021/04/28 05:23:55;;;;;;;9.07;3.97;;;;;;;5.67;52.94;100583.59;5136007;27;20110;-38
2021/04/28 05:26:20;;;;;;;11.53;4.00;;;;;;;5.73;52.99;100588.13;5136243;27;20094;-39
2021/04/28 05:28:45;;;;;;;7.80;4.67;;;;;;;5.77;53.15;100588.53;5135901;27;20020;-39
2021/04/28 05:31:11;;;;;;;7.30;4.00;;;;;;;5.85;53.17;100591.00;5135660;27;20023;-39
2021/04/28 05:33:36;;;;;;;5.87;4.07;;;;;;;5.97;52.29;100592.09;5135831;27;20027;-39
2021/04/28 05:36:03;;;;;;;6.30;4.30;;;;;;;6.04;52.40;100594.75;5135115;27;20019;-39
2021/04/28 05:38:29;;;;;;;10.10;4.35;;;;;;;5.90;52.51;100589.38;5135658;27;20027;-38
2021/04/28 05:40:54;;;;;;;5.53;4.17;;;;;;;5.96;53.08;100600.34;5135721;27;20348;-38
2021/04/28 05:43:20;;;;;;;7.40;4.47;;;;;;;5.95;53.06;100602.19;5135283;27;20023;-39
2021/04/28 05:45:45;;;;;;;6.47;4.00;;;;;;;5.94;53.38;100600.53;5135025;27;20031;-39
2021/04/28 05:48:11;;;;;;;6.50;3.87;;;;;;;5.97;52.89;100602.00;5135476;27;20019;-39
2021/04/28 05:50:37;;;;;;;;;;;;;;;6.13;52.66;100604.25;5135690;27;20050;-39
2021/04/28 05:53:03;;;;;;;7.07;3.95;;;;;;;6.17;52.92;100609.00;5135249;27;19919;-39
2021/04/28 05:55:28;;;;;;;5.45;4.00;;;;;;;6.23;52.90;100604.66;5135211;27;20031;-39
2021/04/28 05:57:53;;;;;;;6.77;4.40;;;;;;;6.26;52.67;100601.56;5135224;27;20054;-38
2021/04/28 06:00:19;;;;;;;5.43;4.17;;;;;;;6.33;53.25;100598.84;5136050;27;20076;-39
2021/04/28 06:02:45;;;;;;;5.03;3.95;;;;;;;6.40;52.60;100603.19;5135002;27;20066;-39
2021/04/28 06:05:11;;;;;;;5.93;4.30;;;;;;;6.38;52.42;100591.81;5134860;27;20030;-39
2021/04/28 06:07:36;;;;;;;8.65;4.22;;;;;;;6.41;53.26;100599.47;5134796;27;20023;-39
2021/04/28 06:10:03;;;;;;;8.00;4.80;;;;;;;6.48;54.07;100602.13;5136027;27;20031;-39
2021/04/28 06:12:28;;;;;;;7.00;4.38;;;;;;;6.55;53.12;100596.75;5135301;27;20027;-39
2021/04/28 06:14:54;;;;;;;6.10;4.17;;;;;;;6.67;53.80;100595.06;5135208;27;20094;-39
2021/04/28 06:17:19;;;;;;;6.60;4.33;;;;;;;6.74;52.77;100589.69;5135224;27;20413;-39
2021/04/28 06:19:44;;;;;;;8.53;4.67;;;;;;;6.69;52.25;100585.75;5135046;27;20023;-39
2021/04/28 06:22:10;;;;;;;8.07;4.57;;;;;;;6.66;52.63;100588.88;5133702;27;20027;-39
2021/04/28 06:24:35;;;;;;;7.20;4.83;;;;;;;6.70;52.45;100583.91;5134911;27;20080;-39
2021/04/28 06:27:00;;;;;;;6.37;4.43;;;;;;;6.84;53.46;100580.13;5134789;27;20035;-39
2021/04/28 06:29:26;;;;;;;7.60;4.33;;;;;;;7.00;53.27;100583.38;5135047;27;20023;-39
2021/04/28 06:31:51;;;;;;;12.47;5.37;;;;;;;7.03;52.69;100582.94;5134981;27;20030;-39
2021/04/28 06:34:16;;;;;;;10.53;4.53;;;;;;;7.07;52.21;100592.22;5134594;27;20034;-39
2021/04/28 06:36:42;;;;;;;10.30;4.40;;;;;;;7.09;53.25;100582.09;5133776;27;20041;-39
2021/04/28 06:39:07;;;;;;;5.80;4.73;;;;;;;7.19;52.71;100587.84;5135008;27;20114;-39
2021/04/28 06:41:32;;;;;;;10.00;4.60;;;;;;;7.28;52.02;100585.72;5134667;27;20467;-39
2021/04/28 06:43:58;;;;;;;8.23;4.90;;;;;;;7.45;52.46;100582.28;5134284;27;20538;-39
2021/04/28 06:46:23;;;;;;;6.77;4.57;;;;;;;7.57;51.46;100584.31;5133971;27;20031;-38
2021/04/28 06:48:49;;;;;;;7.80;4.77;;;;;;;7.67;51.46;100584.63;5134460;27;20031;-39
2021/04/28 06:51:14;;;;;;;9.37;5.17;;;;;;;7.77;51.69;100576.91;5135058;27;20019;-39
2021/04/28 06:53:39;;;;;;;8.97;5.03;;;;;;;7.82;50.69;100577.06;5134878;27;20027;-39
2021/04/28 06:56:05;;;;;;;10.47;5.07;;;;;;;7.82;50.82;100584.31;5134746;27;20069;-39
2021/04/28 06:58:32;;;;;;;9.93;4.72;;;;;;;7.93;51.51;100575.53;5134512;27;20058;-39
2021/04/28 07:00:58;;;;;;;7.32;5.13;;;;;;;8.06;51.97;100582.69;5134557;27;20031;-39
2021/04/28 07:03:23;;;;;;;9.50;5.00;;;;;;;8.16;51.20;100572.22;5134351;28;20427;-39
2021/04/28 07:05:49;;;;;;;8.73;4.47;;;;;;;8.28;50.06;100567.75;5134743;28;20027;-39
2021/04/28 07:08:14;;;;;;;7.60;5.07;;;;;;;8.55;51.51;100576.41;5134560;28;20459;-39
2021/04/28 07:10:39;;;;;;;10.03;5.60;;;;;;;8.63;49.93;100573.41;5134773;28;20019;-39
2021/04/28 07:13:05;;;;;;;11.57;4.87;;;;;;;8.71;49.46;100575.00;5134208;28;20068;-39
2021/04/28 07:15:32;;;;;;;10.15;5.60;;;;;;;8.71;49.26;100577.69;5134184;28;20370;-39
2021/04/28 07:17:57;;;;;;;8.05;4.93;;;;;;;8.76;48.75;100573.25;5133814;28;20023;-39
2021/04/28 07:20:23;;;;;;;9.15;4.95;;;;;;;8.87;49.32;100577.06;5134495;28;20106;-39
2021/04/28 07:22:48;;;;;;;10.70;5.10;;;;;;;9.02;49.36;100569.41;5133864;28;20019;-39
2021/04/28 07:25:14;;;;;;;8.27;5.90;;;;;;;9.14;48.96;100580.25;5134707;28;20050;-40
2021/04/28 07:27:41;;;;;;;9.53;5.20;;;;;;;9.23;48.54;100575.38;5134380;28;20371;-39
2021/04/28 07:30:07;;;;;;;12.48;5.60;;;;;;;9.41;47.70;100567.22;5134135;28;20115;-39
2021/04/28 07:32:32;;;;;;;;;;;;;;;9.70;48.65;100567.41;5134197;28;20031;-39
2021/04/28 07:34:58;;;;;;;7.28;5.18;;;;;;;9.87;47.45;100575.66;5134641;27;19960;-39
2021/04/28 07:37:23;;;;;;;10.07;5.37;;;;;;;10.04;46.40;100566.63;5133582;28;20336;-40
2021/04/28 07:39:48;;;;;;;13.10;5.30;;;;;;;9.97;47.18;100563.22;5133766;28;20425;-40
2021/04/28 07:42:13;;;;;;;12.60;5.40;;;;;;;9.91;46.36;100564.16;5133697;28;20020;-40
2021/04/28 07:44:39;;;;;;;8.53;6.10;;;;;;;9.88;46.90;100561.09;5134283;28;20039;-38
2021/04/28 07:47:04;;;;;;;7.37;5.60;;;;;;;9.80;46.13;100551.44;5133910;28;20027;-39
2021/04/28 07:49:30;;;;;;;9.98;4.88;;;;;;;9.97;47.03;100557.00;5134243;28;20167;-40
2021/04/28 07:51:55;;;;;;;7.27;4.77;;;;;;;10.21;47.86;100550.56;5133815;28;20038;-37
2021/04/28 07:54:21;;;;;;;8.23;5.53;;;;;;;10.45;47.23;100551.38;5133898;28;20297;-39
2021/04/28 07:56:47;;;;;;;;;;;;;;;10.62;46.58;100546.06;5134470;28;20084;-40
2021/04/28 07:59:14;;;;;;;6.50;5.47;;;;;;;10.61;45.97;100547.13;5135121;27;20343;-39
2021/04/28 08:01:40;;;;;;;9.23;5.30;;;;;;;10.47;45.75;100546.56;5137651;27;20031;-38
2021/04/28 08:04:05;;;;;;;8.48;5.38;;;;;;;10.68;46.89;100541.56;5137573;27;20106;-38
2021/04/28 08:06:31;;;;;;;6.85;5.28;;;;;;;10.83;45.22;100545.44;5138160;27;20455;-39
2021/04/28 08:08:57;;;;;;;8.63;5.55;;;;;;;10.97;45.59;100537.00;5137484;27;20063;-39
2021/04/28 08:11:22;;;;;;;7.77;5.70;;;;;;;11.01;44.54;100544.41;5138312;27;20034;-38
2021/04/28 08:13:48;;;;;;;5.97;4.77;;;;;;;11.22;45.70;100542.09;5137446;27;20031;-38
2021/04/28 08:16:14;;;;;;;8.65;5.28;;;;;;;11.48;44.08;100536.09;5137317;27;20027;-39
2021/04/28 08:18:40;;;;;;;7.60;5.35;;;;;;;11.43;43.03;100538.69;5137247;27;20039;-39
2021/04/28 08:21:05;;;;;;;10.85;5.95;;;;;;;11.46;43.11;100532.78;5137000;27;20459;-39
2021/04/28 08:23:31;;;;;;;9.05;5.82;;;;;;;11.59;43.47;100527.06;5137178;27;20037;-40
2021/04/28 08:25:58;;;;;;;7.70;5.80;;;;;;;11.78;43.26;100521.41;5137177;27;20055;-39
2021/04/28 08:28:23;;;;;;;9.75;6.68;;;;;;;11.99;45.09;100519.84;5137109;27;20035;-39
2021/04/28 08:30:49;;;;;;;8.43;6.50;;;;;;;12.18;43.25;100515.81;5137742;27;20038;-39
2021/04/28 08:33:14;;;;;;;8.90;6.13;;;;;;;12.26;41.96;100514.56;5137094;27;20257;-39
2021/04/28 08:35:40;;;;;;;8.95;5.65;;;;;;;12.38;43.36;100512.53;5136990;27;20031;-39
2021/04/28 08:38:06;;;;;;;9.60;5.78;;;;;;;12.55;42.22;100516.03;5136598;27;20080;-39
2021/04/28 08:40:33;;;;;;;7.82;6.22;;;;;;;12.60;41.57;100515.28;5137802;27;20020;-39
2021/04/28 08:42:58;;;;;;;9.45;6.00;;;;;;;12.78;40.34;100506.00;5137100;27;20027;-39
2021/04/28 08:45:23;;;;;;;8.53;5.73;;;;;;;12.86;40.16;100513.69;5136908;27;20450;-40
2021/04/28 08:47:50;;;;;;;7.93;5.60;;;;;;;13.09;40.26;100510.69;5136477;27;20306;-39
2021/04/28 08:50:15;;;;;;;15.38;5.88;;;;;;;13.16;40.38;100507.75;5136685;27;20027;-39
2021/04/28 08:52:41;;;;;;;13.97;6.77;;;;;;;13.02;40.26;100511.97;5137426;27;20027;-39
2021/04/28 08:55:09;;;;;;;10.77;6.03;;;;;;;13.10;40.82;100514.22;5136978;27;20618;-39
2021/04/28 08:57:34;;;;;;;8.73;6.22;;;;;;;13.12;38.33;100503.91;5136455;27;20095;-39
2021/04/28 09:00:00;;;;;;;9.57;5.75;;;;;;;13.09;39.21;100499.03;5137004;27;20455;-39
2021/04/28 09:02:27;;;;;;;8.20;5.90;;;;;;;13.27;39.84;100501.38;5136545;27;20031;-39
2021/04/28 09:05:10;;;;;;;10.98;6.10;;;;;;;13.50;39.32;100500.25;5136757;27;20023;-39
2021/04/28 09:07:37;;;;;;;9.57;5.72;;;;;;;13.55;38.77;100499.47;5136860;27;20344;-39
2021/04/28 09:10:07;;;;;;;11.80;6.30;;;;;;;13.59;38.31;100493.25;5136662;27;20023;-39
2021/04/28 09:12:33;;;;;;;7.40;6.50;;;;;;;13.67;37.49;100493.88;5136476;27;20100;-39
2021/04/28 09:14:58;;;;;;;8.30;6.35;;;;;;;13.75;38.37;100491.47;5136230;27;20451;-39
2021/04/28 09:17:23;;;;;;;9.13;6.20;;;;;;;13.78;37.44;100490.16;5136147;27;20031;-39
2021/04/28 09:19:55;;;;;;;8.70;6.13;;;;;;;13.95;38.30;100479.91;5136682;27;20102;-40
2021/04/28 09:22:22;;;;;;;8.10;6.72;;;;;;;13.99;38.03;100474.78;5135821;27;20023;-39
2021/04/28 09:24:52;;;;;;;13.50;6.78;;;;;;;14.15;37.49;100471.91;5136546;27;20503;-39
2021/04/28 09:27:35;;;;;;;8.25;6.10;;;;;;;14.22;36.96;100468.13;5136236;27;20046;-39
2021/04/28 09:30:06;;;;;;;8.95;6.03;;;;;;;14.25;36.63;100471.16;5136289;27;20079;-39
2021/04/28 09:32:33;;;;;;;9.45;6.90;;;;;;;14.28;37.10;100461.63;5135857;27;20043;-39
2021/04/28 09:35:22;;;;;;;10.75;7.05;;;;;;;14.47;37.42;100459.25;5136103;27;20027;-39
2021/04/28 09:38:00;;;;;;;9.38;6.57;;;;;;;14.56;36.09;100452.25;5135708;27;20110;-40
2021/04/28 09:40:42;;;;;;;12.45;6.65;;;;;;;14.57;36.49;100456.59;5135773;27;20027;-39
2021/04/28 09:43:09;;;;;;;9.05;7.18;;;;;;;14.47;35.47;100451.91;5135846;27;20030;-39
2021/04/28 09:45:40;;;;;;;;;;;;;;;14.65;37.37;100450.66;5136400;27;20031;-40
2021/04/28 09:48:06;;;;;;;15.90;8.25;;;;;;;14.64;35.83;100455.28;5135621;27;19907;-39
2021/04/28 09:50:31;;;;;;;;;;;;;;;14.67;35.44;100456.63;5137126;27;20046;-39
2021/04/28 09:52:57;;;;;;;9.80;7.13;;;;;;;14.82;36.87;100443.06;5135475;27;19907;-39
2021/04/28 09:55:22;;;;;;;11.68;7.50;;;;;;;15.12;37.57;100455.91;5135687;27;20023;-39
2021/04/28 09:57:53;;;;;;;10.45;8.20;;;;;;;15.29;37.34;100446.69;5135017;27;20035;-39
2021/04/28 10:00:27;;;;;;;13.07;7.70;;;;;;;15.29;36.94;100442.06;5136325;27;20127;-39
2021/04/28 10:03:01;;;;;;;11.27;7.43;;;;;;;15.45;37.43;100446.41;5135198;27;20075;-40
2021/04/28 10:05:32;;;;;;;11.60;7.85;;;;;;;15.50;35.24;100447.50;5135041;27;20372;-41
2021/04/28 10:08:11;;;;;;;10.52;7.95;;;;;;;15.57;34.89;100437.97;5135438;27;20026;-39
2021/04/28 10:10:38;;;;;;;12.13;7.72;;;;;;;15.76;34.30;100440.94;5135085;27;20034;-39
2021/04/28 10:13:04;;;;;;;13.13;7.70;;;;;;;15.75;34.37;100433.88;5135302;27;20031;-39
2021/04/28 10:15:29;;;;;;;12.43;7.45;;;;;;;16.03;35.78;100439.81;5135783;27;20470;-40
2021/04/28 10:17:59;;;;;;;10.57;7.13;;;;;;;16.13;35.93;100446.06;5134767;27;20100;-40
2021/04/28 10:20:25;;;;;;;10.23;7.25;;;;;;;15.88;34.56;100435.22;5135032;27;20031;-40
2021/04/28 10:22:51;;;;;;;13.82;8.50;;;;;;;16.01;35.09;100437.38;5134297;27;20035;-40
2021/04/28 10:25:17;;;;;;;13.38;7.13;;;;;;;16.08;35.04;100437.88;5135130;27;20062;-40
2021/04/28 10:27:44;;;;;;;12.35;7.43;;;;;;;16.10;34.53;100435.69;5134516;27;20033;-39
2021/04/28 10:30:14;;;;;;;13.68;7.97;;;;;;;16.05;34.90;100427.53;5134810;27;20023;-39
2021/04/28 10:32:41;;;;;;;12.57;6.90;;;;;;;16.12;34.93;100433.50;5134670;27;20023;-39
2021/04/28 10:35:14;;;;;;;10.70;7.57;;;;;;;16.07;34.11;100419.91;5135229;27;20456;-40
2021/04/28 10:37:41;;;;;;;14.75;7.47;;;;;;;16.31;34.64;100424.72;5134543;27;20382;-40
2021/04/28 10:40:12;;;;;;;12.00;7.95;;;;;;;16.39;33.85;100410.47;5134334;27;20466;-40
2021/04/28 10:42:38;;;;;;;11.10;7.60;;;;;;;16.58;33.91;100411.47;5134580;27;20110;-41
2021/04/28 10:45:07;;;;;;;10.93;7.40;;;;;;;16.77;33.48;100410.88;5134501;27;20575;-39
2021/04/28 10:47:39;;;;;;;11.07;7.50;;;;;;;16.94;34.56;100406.66;5134489;27;20034;-39
2021/04/28 10:50:37;;;;;;;13.05;7.97;;;;;;;17.08;33.76;100401.38;5135338;27;20027;-40
2021/04/28 10:53:07;;;;;;;14.40;8.57;;;;;;;17.21;32.90;100397.97;5134704;27;20046;-39
2021/04/28 10:55:39;;;;;;;15.45;8.90;;;;;;;17.22;32.90;100399.59;5134647;27;20055;-39
2021/04/28 10:58:23;;;;;;;11.75;7.85;;;;;;;17.14;32.97;100386.56;5134028;27;20110;-39
2021/04/28 11:00:48;;;;;;;12.38;8.05;;;;;;;17.40;32.45;100387.16;5135021;27;20056;-39
2021/04/28 11:03:33;;;;;;;;;;;;;;;17.46;33.62;100390.66;5134690;28;20027;-39
2021/04/28 11:06:16;;;;;;;11.23;8.13;;;;;;;17.39;33.00;100381.97;5134915;27;20041;-39
2021/04/28 11:08:42;;;;;;;12.68;8.23;;;;;;;17.60;33.19;100379.84;5134561;28;20098;-39
2021/04/28 11:11:27;;;;;;;;;;;;;;;17.75;33.17;100377.81;5135334;28;20114;-39
2021/04/28 11:14:11;;;;;;;11.02;8.15;;;;;;;17.80;32.60;100379.66;5134710;28;19907;-39
2021/04/28 11:16:43;;;;;;;12.27;8.70;;;;;;;17.73;32.86;100371.00;5134453;28;20038;-39
2021/04/28 11:19:24;;;;;;;16.45;8.73;;;;;;;17.44;32.75;100365.53;5133875;28;20079;-39
2021/04/28 11:22:07;;;;;;;11.63;8.32;;;;;;;17.61;33.86;100371.34;5134226;28;20027;-39
2021/04/28 11:25:04;;;;;;;16.48;8.68;;;;;;;17.83;33.64;100367.34;5133801;28;20102;-39
2021/04/28 11:28:04;;;;;;;12.70;8.50;;;;;;;18.04;31.94;100357.78;5134723;28;20034;-39
2021/04/28 11:30:45;;;;;;;12.80;8.93;;;;;;;18.04;33.19;100352.31;5134627;28;20035;-39
2021/04/28 11:33:11;;;;;;;13.00;8.70;;;;;;;18.07;30.67;100351.75;5136311;27;20026;-39